createdAt,value
2022-07-31T00:00:07.982Z,1016.84
2022-07-31T00:05:08.471Z,1016.72
2022-07-31T00:10:08.222Z,1016.77
2022-07-31T00:15:07.951Z,1016.77
2022-07-31T00:20:07.699Z,1016.68
2022-07-31T00:25:08.423Z,1016.7
2022-07-31T00:30:08.134Z,1016.69
2022-07-31T00:35:07.838Z,1016.65
2022-07-31T00:40:08.161Z,1016.58
2022-07-31T00:45:07.870Z,1016.57
2022-07-31T00:50:07.943Z,1016.53
2022-07-31T00:55:07.642Z,1016.52
2022-07-31T01:00:08.362Z,1016.46
2022-07-31T01:05:08.140Z,1016.38
2022-07-31T01:10:07.896Z,1016.27
2022-07-31T01:15:08.625Z,1016.34
2022-07-31T01:20:08.347Z,1016.25
2022-07-31T01:25:08.075Z,1016.29
2022-07-31T01:30:07.743Z,1016.33
2022-07-31T01:35:08.502Z,1016.33
2022-07-31T01:40:08.221Z,1016.27
2022-07-31T01:45:07.956Z,1016.27
2022-07-31T01:50:07.923Z,1016.13
2022-07-31T01:55:08.398Z,1016.12
2022-07-31T02:00:23.557Z,1016.05
2022-07-31T02:05:07.695Z,1016.03
2022-07-31T02:10:08.399Z,1016.02
2022-07-31T02:15:08.066Z,1016.01
2022-07-31T02:20:07.827Z,1015.91
2022-07-31T02:25:08.550Z,1015.88
2022-07-31T02:30:08.253Z,1015.81
2022-07-31T02:35:07.946Z,1015.79
2022-07-31T02:40:07.687Z,1015.74
2022-07-31T02:45:08.400Z,1015.75
2022-07-31T02:50:08.126Z,1015.72
2022-07-31T02:55:07.850Z,1015.81
2022-07-31T03:00:08.553Z,1015.75
2022-07-31T03:05:08.280Z,1015.77
2022-07-31T03:10:08.005Z,1015.75
2022-07-31T03:15:07.717Z,1015.75
2022-07-31T03:20:08.439Z,1015.76
2022-07-31T03:25:08.158Z,1015.56
2022-07-31T03:30:07.905Z,1015.31
2022-07-31T03:35:08.664Z,1015.31
2022-07-31T03:40:08.402Z,1015.27
2022-07-31T03:45:08.110Z,1015.3
2022-07-31T03:50:07.802Z,1015.2
2022-07-31T03:55:08.517Z,1015.44
2022-07-31T04:00:16.603Z,1015.44
2022-07-31T04:05:03.930Z,1015.35
2022-07-31T04:10:02.750Z,1015.43
2022-07-31T04:15:02.768Z,1015.48
2022-07-31T04:20:02.674Z,1015.32
2022-07-31T04:25:02.683Z,1015.44
2022-07-31T04:30:03.071Z,1015.37
2022-07-31T04:35:01.919Z,1015.37
2022-07-31T04:40:02.749Z,1015.37
2022-07-31T04:45:02.594Z,1015.41
2022-07-31T04:50:02.459Z,1015.41
2022-07-31T04:55:02.324Z,1015.4
2022-07-31T05:00:02.224Z,1015.4
2022-07-31T05:05:02.139Z,1015.4
2022-07-31T05:10:02.145Z,1015.42
2022-07-31T05:15:02.080Z,1015.56
2022-07-31T05:20:01.864Z,1015.55
2022-07-31T05:25:02.755Z,1015.53
2022-07-31T05:30:02.666Z,1015.46
2022-07-31T05:35:02.574Z,1015.42
2022-07-31T05:40:02.435Z,1015.47
2022-07-31T05:45:02.278Z,1015.49
2022-07-31T05:50:02.068Z,1015.41
2022-07-31T05:55:01.923Z,1015.47
2022-07-31T06:00:03.731Z,1015.45
2022-07-31T06:05:02.096Z,1015.47
2022-07-31T06:10:02.368Z,1015.48
2022-07-31T06:15:02.205Z,1015.42
2022-07-31T06:20:02.530Z,1015.58
2022-07-31T06:25:02.415Z,1015.57
2022-07-31T06:30:01.868Z,1015.65
2022-07-31T06:35:02.821Z,1015.68
2022-07-31T06:40:02.750Z,1015.81
2022-07-31T06:45:02.835Z,1015.78
2022-07-31T06:50:02.884Z,1015.72
2022-07-31T06:55:02.809Z,1015.76
2022-07-31T07:00:07.212Z,1015.68
2022-07-31T07:05:06.665Z,1015.81
2022-07-31T07:10:01.956Z,1015.68
2022-07-31T07:15:01.950Z,1015.67
2022-07-31T07:20:01.877Z,1015.56
2022-07-31T07:25:02.709Z,1015.54
2022-07-31T07:30:02.555Z,1015.56
2022-07-31T07:35:02.370Z,1015.51
2022-07-31T07:40:03.920Z,1015.43
2022-07-31T07:45:03.384Z,1015.49
2022-07-31T07:50:02.692Z,1015.42
2022-07-31T07:55:02.702Z,1015.41
2022-07-31T08:00:02.655Z,1015.46
2022-07-31T08:05:02.507Z,1015.45
2022-07-31T08:10:02.292Z,1015.4
2022-07-31T08:15:02.158Z,1015.5
2022-07-31T08:20:02.070Z,1015.53
2022-07-31T08:25:05.375Z,1015.47
2022-07-31T08:30:01.968Z,1015.42
2022-07-31T08:35:01.794Z,1015.43
2022-07-31T08:40:02.643Z,1015.47
2022-07-31T08:45:02.590Z,1015.39
2022-07-31T08:50:02.503Z,1015.34
2022-07-31T08:55:02.412Z,1015.29
2022-07-31T09:00:02.280Z,1015.32
2022-07-31T09:05:02.050Z,1015.37
2022-07-31T09:10:01.864Z,1015.4
2022-07-31T09:15:02.737Z,1015.3
2022-07-31T09:20:02.564Z,1015.26
2022-07-31T09:25:02.589Z,1015.15
2022-07-31T09:30:02.515Z,1015.2
2022-07-31T09:35:02.548Z,1015.25
2022-07-31T09:40:02.521Z,1015.14
2022-07-31T09:45:02.508Z,1015.18
2022-07-31T09:50:02.441Z,1015.11
2022-07-31T09:55:02.376Z,1015.03
2022-07-31T10:00:02.396Z,1015.07
2022-07-31T10:05:02.238Z,1015.21
2022-07-31T10:10:02.016Z,1015.1
2022-07-31T10:15:01.967Z,1015.03
2022-07-31T10:20:01.811Z,1015.03
2022-07-31T10:25:02.680Z,1015.05
2022-07-31T10:30:02.499Z,1015.0
2022-07-31T10:35:02.306Z,1015.1
2022-07-31T10:40:02.049Z,1015.05
2022-07-31T10:45:01.892Z,1015.01
2022-07-31T10:50:02.649Z,1015.08
2022-07-31T10:55:02.601Z,1014.99
2022-07-31T11:00:02.397Z,1015.0
2022-07-31T11:05:02.147Z,1014.93
2022-07-31T11:10:01.909Z,1014.75
2022-07-31T11:15:02.708Z,1014.74
2022-07-31T11:20:02.530Z,1014.66
2022-07-31T11:25:02.371Z,1014.73
2022-07-31T11:30:05.691Z,1014.66
2022-07-31T11:35:02.736Z,1014.62
2022-07-31T11:40:02.649Z,1014.61
2022-07-31T11:45:02.482Z,1014.51
2022-07-31T11:50:02.266Z,1014.36
2022-07-31T11:55:06.741Z,1014.4
2022-07-31T12:00:02.526Z,1014.44
2022-07-31T12:05:02.140Z,1014.48
2022-07-31T12:10:03.735Z,1014.4
2022-07-31T12:15:02.904Z,1014.37
2022-07-31T12:20:02.940Z,1014.3
2022-07-31T12:25:06.061Z,1014.22
2022-07-31T12:30:02.714Z,1014.24
2022-07-31T12:35:02.649Z,1014.2
2022-07-31T12:40:02.705Z,1014.21
2022-07-31T12:45:19.831Z,1014.09
2022-07-31T12:50:03.656Z,1014.06
2022-07-31T12:55:02.522Z,1013.97
2022-07-31T13:00:03.555Z,1013.93
2022-07-31T13:05:02.468Z,1013.93
2022-07-31T13:10:20.013Z,1013.9
2022-07-31T13:15:01.906Z,1013.98
2022-07-31T13:20:02.810Z,1013.8
2022-07-31T13:25:02.735Z,1013.77
2022-07-31T13:30:02.633Z,1013.75
2022-07-31T13:35:26.608Z,1013.87
2022-07-31T13:40:02.552Z,1013.73
2022-07-31T13:45:08.043Z,1013.74
2022-07-31T13:50:02.434Z,1013.65
2022-07-31T13:55:02.619Z,1013.66
2022-07-31T14:00:02.613Z,1013.72
2022-07-31T14:05:02.514Z,1013.56
2022-07-31T14:10:01.954Z,1013.54
2022-07-31T14:15:01.868Z,1013.49
2022-07-31T14:20:02.818Z,1013.41
2022-07-31T14:25:02.717Z,1013.41
2022-07-31T14:30:02.645Z,1013.37
2022-07-31T14:35:07.797Z,1013.25
2022-07-31T14:40:02.890Z,1013.24
2022-07-31T14:45:03.228Z,1013.27
2022-07-31T14:50:07.492Z,1013.19
2022-07-31T14:55:02.917Z,1013.12
2022-07-31T15:00:02.818Z,1013.05
2022-07-31T15:06:40.762Z,1013.06
2022-07-31T15:10:02.673Z,1013.12
2022-07-31T15:15:02.591Z,1013.03
2022-07-31T15:20:02.628Z,1013.08
2022-07-31T15:25:02.502Z,1013.08
2022-07-31T15:30:06.752Z,1013.05
2022-07-31T15:35:02.564Z,1013.18
2022-07-31T15:40:03.675Z,1013.2
2022-07-31T15:45:01.965Z,1013.34
2022-07-31T15:50:02.073Z,1013.28
2022-07-31T15:55:01.970Z,1013.26
2022-07-31T16:00:03.694Z,1013.32
2022-07-31T16:05:11.005Z,1013.26
2022-07-31T16:10:14.657Z,1013.32
2022-07-31T16:15:01.950Z,1013.33
2022-07-31T16:20:02.350Z,1013.46
2022-07-31T16:25:02.425Z,1013.56
2022-07-31T16:30:03.077Z,1013.47
2022-07-31T16:35:02.274Z,1013.45
2022-07-31T16:40:02.090Z,1013.46
2022-07-31T16:45:02.324Z,1013.45
2022-07-31T16:50:02.245Z,1013.43
2022-07-31T16:55:02.277Z,1013.41
2022-07-31T17:00:02.152Z,1013.35
2022-07-31T17:05:02.171Z,1013.38
2022-07-31T17:10:02.007Z,1013.43
2022-07-31T17:15:01.898Z,1013.36
2022-07-31T17:20:02.751Z,1013.43
2022-07-31T17:25:02.614Z,1013.5
2022-07-31T17:30:03.013Z,1013.63
2022-07-31T17:35:03.049Z,1013.44
2022-07-31T17:40:02.208Z,1013.5
2022-07-31T17:45:02.401Z,1013.57
2022-07-31T17:50:02.030Z,1013.55
2022-07-31T17:55:02.013Z,1013.44
2022-07-31T18:00:04.312Z,1013.51
2022-07-31T18:05:02.552Z,1013.53
2022-07-31T18:10:02.836Z,1013.5
2022-07-31T18:15:02.864Z,1013.51
2022-07-31T18:20:02.674Z,1013.7
2022-07-31T18:25:02.550Z,1013.63
2022-07-31T18:30:02.454Z,1013.63
2022-07-31T18:35:02.210Z,1013.65
2022-07-31T18:40:02.360Z,1013.75
2022-07-31T18:45:02.776Z,1013.78
2022-07-31T18:51:02.915Z,1013.69
2022-07-31T18:55:03.188Z,1013.74
2022-07-31T19:00:02.158Z,1013.7
2022-07-31T19:05:02.003Z,1013.68
2022-07-31T19:10:01.854Z,1013.7
2022-07-31T19:15:03.832Z,1013.76
2022-07-31T19:20:02.702Z,1013.79
2022-07-31T19:25:02.513Z,1013.79
2022-07-31T19:30:02.396Z,1013.84
2022-07-31T19:35:02.186Z,1013.88
2022-07-31T19:40:03.064Z,1013.98
2022-07-31T19:45:01.963Z,1014.02
2022-07-31T19:50:01.964Z,1014.13
2022-07-31T19:55:01.761Z,1014.14
2022-07-31T20:00:02.691Z,1014.12
2022-07-31T20:05:02.791Z,1014.22
2022-07-31T20:10:02.796Z,1014.2
2022-07-31T20:15:02.786Z,1014.3
2022-07-31T20:20:15.534Z,1014.24
2022-07-31T20:25:02.097Z,1014.28
2022-07-31T20:30:02.581Z,1014.29
2022-07-31T20:35:02.688Z,1014.23
2022-07-31T20:40:02.770Z,1014.28
2022-07-31T20:45:02.810Z,1014.28
2022-07-31T20:50:02.723Z,1014.3
2022-07-31T20:55:03.534Z,1014.3
2022-07-31T21:00:02.421Z,1014.39
2022-07-31T21:05:02.256Z,1014.4
2022-07-31T21:10:05.103Z,1014.42
2022-07-31T21:15:01.979Z,1014.4
2022-07-31T21:20:01.824Z,1014.39
2022-07-31T21:25:02.673Z,1014.35
2022-07-31T21:30:02.504Z,1014.41
2022-07-31T21:35:15.133Z,1014.4
2022-07-31T21:40:07.843Z,1014.48
2022-07-31T21:45:08.563Z,1014.5
2022-07-31T21:50:08.330Z,1014.59
2022-07-31T21:55:08.008Z,1014.59
2022-07-31T22:00:13.319Z,1014.52
2022-07-31T22:05:08.484Z,1014.56
2022-07-31T22:10:08.188Z,1014.59
2022-07-31T22:15:11.190Z,1014.58
2022-07-31T22:20:08.324Z,1014.53
2022-07-31T22:25:08.044Z,1014.52
2022-07-31T22:30:07.755Z,1014.54
2022-07-31T22:35:08.484Z,1014.56
2022-07-31T22:40:08.202Z,1014.64
2022-07-31T22:45:07.899Z,1014.63
2022-07-31T22:50:08.628Z,1014.59
2022-07-31T22:55:08.288Z,1014.61
2022-07-31T23:00:58.534Z,1014.69
2022-07-31T23:05:08.513Z,1014.75
2022-07-31T23:10:08.250Z,1014.79
2022-07-31T23:15:07.936Z,1014.94
2022-07-31T23:20:08.650Z,1014.91
2022-07-31T23:25:08.393Z,1014.84
2022-07-31T23:30:08.100Z,1014.84
2022-07-31T23:35:07.790Z,1014.8
2022-07-31T23:40:08.589Z,1014.84
2022-07-31T23:45:08.321Z,1014.83
2022-07-31T23:50:08.338Z,1014.83
2022-07-31T23:55:08.092Z,1014.84
